Time;durP1;ratioP1;P1;durP2;ratioP2;P2;SDS_P1;SDS_P2;PMS_P1;PMS_P2;Temp;Humidity;BMP_temperature;BMP_pressure;BME280_temperature;BME280_humidity;BME280_pressure;Samples;Min_cycle;Max_cycle;Signal;HPM_P1;HPM_P2
2024/04/12 00:00:59;;;;;;;2.58;0.77;;;;;;;;;;5480919;26;20366;-52
2024/04/12 00:03:24;;;;;;;2.95;1.02;;;;;;;;;;5482537;26;20016;-52
2024/04/12 00:05:49;;;;;;;3.28;0.90;;;;;;;;;;5480694;26;20481;-52
2024/04/12 00:08:16;;;;;;;2.00;0.90;;;;;;;;;;5480042;26;20429;-53
2024/04/12 00:10:41;;;;;;;2.25;0.80;;;;;;;;;;5476491;26;20004;-54
2024/04/12 00:13:07;;;;;;;3.13;1.10;;;;;;;;;;5485857;26;19998;-51
2024/04/12 00:15:33;;;;;;;2.03;0.77;;;;;;;;;;5486246;26;20059;-52
2024/04/12 00:17:59;;;;;;;2.05;0.98;;;;;;;;;;5483761;26;20038;-51
2024/04/12 00:20:28;;;;;;;1.33;0.70;;;;;;;;;;5485824;26;19998;-51
2024/04/12 00:22:55;;;;;;;2.40;0.90;;;;;;;;;;5485008;26;20033;-51
2024/04/12 00:25:24;;;;;;;2.47;0.98;;;;;;;;;;5485326;26;20002;-50
2024/04/12 00:27:49;;;;;;;3.70;0.98;;;;;;;;;;5484859;26;19998;-52
2024/04/12 00:30:37;;;;;;;1.92;0.80;;;;;;;;;;5485533;26;19999;-50
2024/04/12 00:33:09;;;;;;;1.98;0.90;;;;;;;;;;5484605;26;19999;-50
2024/04/12 00:35:37;;;;;;;1.88;0.82;;;;;;;;;;5485667;26;19998;-51
2024/04/12 00:38:09;;;;;;;1.77;0.90;;;;;;;;;;5484385;26;19998;-50
2024/04/12 00:40:40;;;;;;;1.55;0.80;;;;;;;;;;5484746;26;19998;-47
2024/04/12 00:43:13;;;;;;;1.30;0.80;;;;;;;;;;5486176;26;19994;-52
2024/04/12 00:45:45;;;;;;;2.27;0.87;;;;;;;;;;5482534;26;20503;-53
2024/04/12 00:48:10;;;;;;;2.50;0.90;;;;;;;;;;5484243;26;20002;-50
2024/04/12 00:50:37;;;;;;;1.58;0.88;;;;;;;;;;5484993;26;20009;-50
2024/04/12 00:53:03;;;;;;;1.38;0.70;;;;;;;;;;5484125;26;20074;-50
2024/04/12 00:55:32;;;;;;;2.40;1.00;;;;;;;;;;5479543;26;20045;-50
2024/04/12 00:57:59;;;;;;;2.22;0.90;;;;;;;;;;5485266;26;20002;-50
2024/04/12 01:00:34;;;;;;;3.33;0.90;;;;;;;;;;5483269;26;20034;-49
2024/04/12 01:03:06;;;;;;;2.70;1.05;;;;;;;;;;5485466;26;19994;-51
2024/04/12 01:05:32;;;;;;;2.25;1.00;;;;;;;;;;5483236;26;20039;-49
2024/04/12 01:08:00;;;;;;;2.03;0.90;;;;;;;;;;5485875;26;20013;-50
2024/04/12 01:10:26;;;;;;;5.47;0.95;;;;;;;;;;5484951;26;20600;-49
2024/04/12 01:12:55;;;;;;;2.40;0.88;;;;;;;;;;5485131;26;19998;-50
2024/04/12 01:15:25;;;;;;;1.90;0.80;;;;;;;;;;5447142;26;20009;-51
2024/04/12 01:17:51;;;;;;;1.20;0.68;;;;;;;;;;5474627;26;20006;-48
2024/04/12 01:20:17;;;;;;;2.22;0.80;;;;;;;;;;5466188;26;20035;-50
2024/04/12 01:22:45;;;;;;;1.33;0.70;;;;;;;;;;5483555;26;20071;-50
2024/04/12 01:25:13;;;;;;;1.60;0.80;;;;;;;;;;5484466;26;19998;-52
2024/04/12 01:27:38;;;;;;;1.00;0.60;;;;;;;;;;5485267;26;20329;-53
2024/04/12 01:30:05;;;;;;;2.17;0.80;;;;;;;;;;5483629;26;19998;-55
2024/04/12 01:32:30;;;;;;;2.00;0.82;;;;;;;;;;5485082;26;20002;-51
2024/04/12 01:34:56;;;;;;;1.67;0.77;;;;;;;;;;5485275;26;20059;-48
2024/04/12 01:37:21;;;;;;;1.92;0.70;;;;;;;;;;5483908;26;20010;-52
2024/04/12 01:39:47;;;;;;;1.45;0.60;;;;;;;;;;5484844;26;19998;-51
2024/04/12 01:42:13;;;;;;;1.58;0.80;;;;;;;;;;5452641;26;20010;-51
2024/04/12 01:44:38;;;;;;;1.65;0.80;;;;;;;;;;5484318;26;19998;-53
2024/04/12 01:47:04;;;;;;;1.40;0.70;;;;;;;;;;5485724;26;19998;-53
2024/04/12 01:49:33;;;;;;;1.92;0.80;;;;;;;;;;5485063;26;20067;-54
2024/04/12 01:52:00;;;;;;;2.08;0.80;;;;;;;;;;5476115;26;19998;-49
2024/04/12 01:54:32;;;;;;;1.73;0.68;;;;;;;;;;5482143;26;20022;-54
2024/04/12 01:57:01;;;;;;;2.70;0.73;;;;;;;;;;5485103;26;20453;-49
2024/04/12 01:59:27;;;;;;;1.42;0.77;;;;;;;;;;5483774;26;20738;-51
2024/04/12 02:01:53;;;;;;;1.30;0.70;;;;;;;;;;5483617;26;20010;-51
2024/04/12 02:04:21;;;;;;;3.03;0.80;;;;;;;;;;5484856;26;20007;-54
2024/04/12 02:06:48;;;;;;;1.42;0.70;;;;;;;;;;5482136;26;20010;-50
2024/04/12 02:09:14;;;;;;;0.80;0.52;;;;;;;;;;5481354;26;20050;-53
2024/04/12 02:11:41;;;;;;;2.78;0.73;;;;;;;;;;5484654;26;19994;-54
2024/04/12 02:14:07;;;;;;;1.40;0.70;;;;;;;;;;5472720;26;20009;-49
2024/04/12 02:16:32;;;;;;;0.93;0.52;;;;;;;;;;5483786;26;20567;-54
2024/04/12 02:18:58;;;;;;;1.10;0.68;;;;;;;;;;5484874;26;20006;-53
2024/04/12 02:21:31;;;;;;;2.17;0.80;;;;;;;;;;5484606;26;20005;-50
2024/04/12 02:24:00;;;;;;;1.38;0.70;;;;;;;;;;5483511;26;20021;-52
2024/04/12 02:26:25;;;;;;;1.73;0.75;;;;;;;;;;5484227;26;20030;-51
2024/04/12 02:28:52;;;;;;;1.83;0.95;;;;;;;;;;5484695;26;20067;-49
2024/04/12 02:31:19;;;;;;;1.02;0.65;;;;;;;;;;5484018;26;20053;-54
2024/04/12 02:33:44;;;;;;;1.88;0.70;;;;;;;;;;5465817;26;20002;-54
2024/04/12 02:36:12;;;;;;;2.47;0.70;;;;;;;;;;5484021;26;20002;-50
2024/04/12 02:38:42;;;;;;;1.55;0.60;;;;;;;;;;5478568;26;20009;-50
2024/04/12 02:41:14;;;;;;;2.35;0.75;;;;;;;;;;5475906;26;20013;-50
2024/04/12 02:43:45;;;;;;;1.27;0.68;;;;;;;;;;5472086;26;20017;-52
2024/04/12 02:46:10;;;;;;;1.60;0.75;;;;;;;;;;5476208;26;20017;-48
2024/04/12 02:48:40;;;;;;;1.33;0.70;;;;;;;;;;5479227;26;19998;-49
2024/04/12 02:51:06;;;;;;;1.48;0.70;;;;;;;;;;5426514;26;20610;-50
2024/04/12 02:53:32;;;;;;;1.38;0.73;;;;;;;;;;5482715;26;20020;-53
2024/04/12 02:56:11;;;;;;;1.60;0.75;;;;;;;;;;5483355;26;20013;-51
2024/04/12 02:58:40;;;;;;;0.95;0.50;;;;;;;;;;5463567;26;19998;-49
2024/04/12 03:01:13;;;;;;;1.48;0.70;;;;;;;;;;5479966;26;20017;-50
2024/04/12 03:03:49;;;;;;;0.68;0.50;;;;;;;;;;5473496;26;20032;-50
2024/04/12 03:06:22;;;;;;;1.30;0.50;;;;;;;;;;5477575;26;20079;-49
2024/04/12 03:08:48;;;;;;;1.17;0.60;;;;;;;;;;5475564;26;19998;-51
2024/04/12 03:11:21;;;;;;;1.00;0.60;;;;;;;;;;5482052;26;20002;-52
2024/04/12 03:13:46;;;;;;;0.85;0.63;;;;;;;;;;5480271;26;20010;-54
2024/04/12 03:16:13;;;;;;;1.20;0.57;;;;;;;;;;5483016;26;20082;-52
2024/04/12 03:18:44;;;;;;;1.10;0.50;;;;;;;;;;5482347;26;19998;-54
2024/04/12 03:21:11;;;;;;;1.70;0.80;;;;;;;;;;5470349;26;20470;-49
2024/04/12 03:23:36;;;;;;;1.52;0.70;;;;;;;;;;5465628;26;19998;-51
2024/04/12 03:26:02;;;;;;;1.40;0.60;;;;;;;;;;5482984;26;20095;-51
2024/04/12 03:28:30;;;;;;;1.00;0.60;;;;;;;;;;5483190;26;20010;-52
2024/04/12 03:30:55;;;;;;;1.55;0.60;;;;;;;;;;5483722;26;20104;-52
2024/04/12 03:33:21;;;;;;;1.25;0.50;;;;;;;;;;5483331;26;19998;-52
2024/04/12 03:35:46;;;;;;;1.02;0.50;;;;;;;;;;5482077;26;20034;-52
2024/04/12 03:38:28;;;;;;;3.15;0.80;;;;;;;;;;5483268;26;19998;-52
2024/04/12 03:41:00;;;;;;;1.63;0.70;;;;;;;;;;5472042;26;20002;-49
2024/04/12 03:43:27;;;;;;;1.40;0.70;;;;;;;;;;5482996;26;20009;-51
2024/04/12 03:45:58;;;;;;;1.20;0.70;;;;;;;;;;5483256;26;19998;-52
2024/04/12 03:48:24;;;;;;;1.08;0.68;;;;;;;;;;5486483;26;20086;-53
2024/04/12 03:50:59;;;;;;;1.52;0.80;;;;;;;;;;5484484;26;20523;-51
2024/04/12 03:53:30;;;;;;;3.55;0.82;;;;;;;;;;5479217;26;20072;-50
2024/04/12 03:55:56;;;;;;;1.42;0.70;;;;;;;;;;5484294;26;20001;-51
2024/04/12 03:58:22;;;;;;;1.52;0.80;;;;;;;;;;5486236;26;19997;-49
2024/04/12 04:00:48;;;;;;;2.17;0.80;;;;;;;;;;5486269;26;19998;-50
2024/04/12 04:03:31;;;;;;;1.90;0.77;;;;;;;;;;5486708;26;20061;-48
2024/04/12 04:06:07;;;;;;;2.38;0.80;;;;;;;;;;5485619;26;20442;-53
2024/04/12 04:08:48;;;;;;;2.42;0.90;;;;;;;;;;5485454;26;19998;-51
2024/04/12 04:11:16;;;;;;;1.52;0.75;;;;;;;;;;5469005;26;20102;-49
2024/04/12 04:13:44;;;;;;;1.52;0.77;;;;;;;;;;5486385;26;20002;-52
2024/04/12 04:16:10;;;;;;;1.00;0.55;;;;;;;;;;5463211;26;20013;-53
2024/04/12 04:18:35;;;;;;;1.63;0.77;;;;;;;;;;5486383;26;20009;-51
2024/04/12 04:21:07;;;;;;;4.40;0.80;;;;;;;;;;5486198;26;19998;-52
2024/04/12 04:23:38;;;;;;;2.20;0.80;;;;;;;;;;5486088;26;20157;-48
2024/04/12 04:26:08;;;;;;;2.45;0.80;;;;;;;;;;5477542;26;20022;-53
2024/04/12 04:28:34;;;;;;;2.10;0.80;;;;;;;;;;5477788;26;19995;-52
2024/04/12 04:31:05;;;;;;;1.77;0.88;;;;;;;;;;5477687;26;20428;-51
2024/04/12 04:33:35;;;;;;;1.98;0.80;;;;;;;;;;5473999;26;20017;-51
2024/04/12 04:36:09;;;;;;;3.55;1.00;;;;;;;;;;5483833;26;20028;-50
2024/04/12 04:38:43;;;;;;;2.00;0.88;;;;;;;;;;5483179;26;20002;-47
2024/04/12 04:41:08;;;;;;;2.25;0.90;;;;;;;;;;5486041;26;20010;-53
2024/04/12 04:43:34;;;;;;;2.40;0.90;;;;;;;;;;5486164;26;20082;-51
2024/04/12 04:46:15;;;;;;;1.90;1.10;;;;;;;;;;5485860;26;20006;-59
2024/04/12 04:48:40;;;;;;;1.90;0.80;;;;;;;;;;5472783;26;19998;-57
2024/04/12 04:51:06;;;;;;;3.70;1.20;;;;;;;;;;5485929;26;20525;-59
2024/04/12 04:53:31;;;;;;;2.83;1.02;;;;;;;;;;5485719;26;20074;-57
2024/04/12 04:56:01;;;;;;;3.35;1.08;;;;;;;;;;5484965;26;19998;-57
2024/04/12 04:58:28;;;;;;;2.17;0.77;;;;;;;;;;5483745;26;19998;-59
2024/04/12 05:00:53;;;;;;;2.38;0.85;;;;;;;;;;5482288;26;20002;-60
2024/04/12 05:03:19;;;;;;;3.05;0.80;;;;;;;;;;5484972;26;20042;-48
2024/04/12 05:05:49;;;;;;;3.70;1.05;;;;;;;;;;5485659;26;19998;-52
2024/04/12 05:08:16;;;;;;;2.42;1.05;;;;;;;;;;5479363;26;20468;-52
2024/04/12 05:10:42;;;;;;;3.80;1.02;;;;;;;;;;5484615;26;20017;-53
2024/04/12 05:13:07;;;;;;;2.30;0.70;;;;;;;;;;5485801;26;20342;-54
2024/04/12 05:18:08;;;;;;;1.60;0.70;;;;;;;;;;5484411;26;20040;-52
2024/04/12 05:20:43;;;;;;;2.25;1.00;;;;;;;;;;5485348;26;20013;-52
2024/04/12 05:23:16;;;;;;;3.53;1.00;;;;;;;;;;5485381;26;20006;-50
2024/04/12 05:25:51;;;;;;;1.90;0.70;;;;;;;;;;5485075;26;20006;-49
2024/04/12 05:28:19;;;;;;;2.80;0.88;;;;;;;;;;5484565;26;19998;-53
2024/04/12 05:30:47;;;;;;;1.77;0.80;;;;;;;;;;5485346;26;20494;-52
2024/04/12 05:33:16;;;;;;;2.78;0.85;;;;;;;;;;5483516;26;20022;-51
2024/04/12 05:35:42;;;;;;;2.65;0.90;;;;;;;;;;5484474;26;20014;-54
2024/04/12 05:38:07;;;;;;;2.17;0.80;;;;;;;;;;5485781;26;20075;-51
2024/04/12 05:40:51;;;;;;;2.50;0.88;;;;;;;;;;5484489;26;20002;-52
2024/04/12 05:43:16;;;;;;;2.00;0.80;;;;;;;;;;5483213;26;20010;-53
2024/04/12 05:45:57;;;;;;;3.78;0.90;;;;;;;;;;5483255;26;19998;-50
2024/04/12 05:48:23;;;;;;;2.60;0.98;;;;;;;;;;5483574;26;20047;-52
2024/04/12 05:50:50;;;;;;;2.70;0.90;;;;;;;;;;5452008;26;20394;-54
2024/04/12 05:53:17;;;;;;;3.50;0.80;;;;;;;;;;5485384;26;19998;-52
2024/04/12 05:55:51;;;;;;;1.63;0.80;;;;;;;;;;5482902;26;20012;-53
2024/04/12 05:58:23;;;;;;;1.75;0.80;;;;;;;;;;5482584;26;19998;-50
2024/04/12 06:00:50;;;;;;;2.27;1.00;;;;;;;;;;5484490;26;20006;-50
2024/04/12 06:03:15;;;;;;;2.22;0.90;;;;;;;;;;5471758;26;20267;-51
2024/04/12 06:05:41;;;;;;;1.55;0.90;;;;;;;;;;5484069;26;19998;-51
2024/04/12 06:08:06;;;;;;;2.55;1.15;;;;;;;;;;5476868;26;20011;-61
2024/04/12 06:10:32;;;;;;;1.55;0.80;;;;;;;;;;5476477;26;20013;-60
2024/04/12 06:13:05;;;;;;;2.55;0.80;;;;;;;;;;5484702;26;20317;-60
2024/04/12 06:15:36;;;;;;;2.22;0.80;;;;;;;;;;5484439;26;20002;-59
2024/04/12 06:18:08;;;;;;;2.03;0.88;;;;;;;;;;5484346;26;20013;-57
2024/04/12 06:20:34;;;;;;;2.30;0.80;;;;;;;;;;5475430;26;20048;-61
2024/04/12 06:23:06;;;;;;;2.70;0.80;;;;;;;;;;5483790;26;20009;-58
2024/04/12 06:25:45;;;;;;;2.53;0.90;;;;;;;;;;5484497;26;20005;-59
2024/04/12 06:28:12;;;;;;;2.33;0.90;;;;;;;;;;5482949;26;20408;-58
2024/04/12 06:30:47;;;;;;;1.00;0.60;;;;;;;;;;5483331;26;19995;-58
2024/04/12 06:33:13;;;;;;;2.28;0.88;;;;;;;;;;5483232;26;20402;-60
2024/04/12 06:35:49;;;;;;;1.38;0.57;;;;;;;;;;5476651;26;20014;-61
2024/04/12 06:38:22;;;;;;;1.60;0.80;;;;;;;;;;5483346;26;20017;-58
2024/04/12 06:40:57;;;;;;;2.03;0.98;;;;;;;;;;5476792;26;20003;-60
2024/04/12 06:43:23;;;;;;;2.70;1.00;;;;;;;;;;5462615;26;20013;-59
2024/04/12 06:46:08;;;;;;;2.40;0.90;;;;;;;;;;5483602;26;20006;-61
2024/04/12 06:48:40;;;;;;;3.13;1.05;;;;;;;;;;5484137;26;20355;-59
2024/04/12 06:51:11;;;;;;;3.13;1.17;;;;;;;;;;5475630;26;20434;-60
2024/04/12 06:53:36;;;;;;;2.28;0.90;;;;;;;;;;5476660;26;20047;-60
2024/04/12 06:56:06;;;;;;;3.00;1.00;;;;;;;;;;5483977;26;20006;-60
2024/04/12 06:58:38;;;;;;;2.17;0.80;;;;;;;;;;5484099;26;20333;-60
2024/04/12 07:01:05;;;;;;;1.40;0.73;;;;;;;;;;5483594;26;20014;-59
2024/04/12 07:03:31;;;;;;;2.08;0.95;;;;;;;;;;5482192;26;20333;-59
2024/04/12 07:05:57;;;;;;;2.63;0.93;;;;;;;;;;5483632;26;20001;-61
2024/04/12 07:08:26;;;;;;;1.42;0.80;;;;;;;;;;5482011;26;20013;-60
2024/04/12 07:10:52;;;;;;;2.17;0.93;;;;;;;;;;5483319;26;20002;-58
2024/04/12 07:13:21;;;;;;;2.05;0.95;;;;;;;;;;5483841;26;20012;-59
2024/04/12 07:15:50;;;;;;;1.83;0.82;;;;;;;;;;5482360;26;20237;-58
2024/04/12 07:18:16;;;;;;;2.35;0.80;;;;;;;;;;5474955;26;20013;-60
2024/04/12 07:20:44;;;;;;;2.15;0.80;;;;;;;;;;5475010;26;20002;-53
2024/04/12 07:23:15;;;;;;;1.73;0.80;;;;;;;;;;5482639;26;19998;-48
2024/04/12 07:25:45;;;;;;;2.47;1.00;;;;;;;;;;5482961;26;20002;-51
2024/04/12 07:28:13;;;;;;;2.38;0.90;;;;;;;;;;5476476;26;20009;-51
2024/04/12 07:30:44;;;;;;;3.95;1.10;;;;;;;;;;5482297;26;19994;-59
2024/04/12 07:33:13;;;;;;;1.98;0.80;;;;;;;;;;5482518;26;20600;-58
2024/04/12 07:35:48;;;;;;;2.92;0.80;;;;;;;;;;5481897;26;20009;-57
2024/04/12 07:38:14;;;;;;;5.78;0.90;;;;;;;;;;5478540;26;20473;-57
2024/04/12 07:40:41;;;;;;;2.55;1.00;;;;;;;;;;5482741;26;19998;-57
2024/04/12 07:43:11;;;;;;;2.65;0.90;;;;;;;;;;5482398;26;20544;-54
2024/04/12 07:45:40;;;;;;;2.97;1.20;;;;;;;;;;5473216;26;20540;-60
2024/04/12 07:48:22;;;;;;;2.38;0.90;;;;;;;;;;5482981;26;20002;-58
2024/04/12 07:50:54;;;;;;;2.92;0.80;;;;;;;;;;5478998;26;20429;-60
2024/04/12 07:53:23;;;;;;;2.75;0.90;;;;;;;;;;5479819;26;20705;-60
2024/04/12 07:55:58;;;;;;;2.10;0.82;;;;;;;;;;5480644;26;20034;-60
2024/04/12 07:58:26;;;;;;;1.83;0.88;;;;;;;;;;5482018;26;19998;-50
2024/04/12 08:00:54;;;;;;;3.03;0.90;;;;;;;;;;5482464;26;20010;-56
2024/04/12 08:03:19;;;;;;;4.10;1.10;;;;;;;;;;5482049;26;20012;-52
2024/04/12 08:06:03;;;;;;;2.70;1.13;;;;;;;;;;5482022;26;20002;-51
2024/04/12 08:08:46;;;;;;;4.30;1.10;;;;;;;;;;5459585;26;19998;-53
2024/04/12 08:11:31;;;;;;;4.13;1.40;;;;;;;;;;5482749;26;20440;-53
2024/04/12 08:14:06;;;;;;;2.83;0.90;;;;;;;;;;5474233;26;20004;-61
2024/04/12 08:16:36;;;;;;;2.80;1.00;;;;;;;;;;5480481;26;20017;-56
2024/04/12 08:19:12;;;;;;;2.08;0.85;;;;;;;;;;5482495;26;20504;-58
2024/04/12 08:21:41;;;;;;;5.72;1.25;;;;;;;;;;5479644;26;20002;-60
2024/04/12 08:24:09;;;;;;;4.95;1.40;;;;;;;;;;5482182;26;20433;-60
2024/04/12 08:26:35;;;;;;;4.55;1.33;;;;;;;;;;5481473;26;20006;-60
2024/04/12 08:29:01;;;;;;;4.00;1.08;;;;;;;;;;5481009;26;20006;-59
2024/04/12 08:31:29;;;;;;;2.67;0.98;;;;;;;;;;5482197;26;20047;-59
2024/04/12 08:33:57;;;;;;;3.03;1.17;;;;;;;;;;5462074;26;20006;-61
2024/04/12 08:36:24;;;;;;;2.63;1.00;;;;;;;;;;5483547;26;20591;-62
2024/04/12 08:39:11;;;;;;;3.67;0.98;;;;;;;;;;5486048;26;19998;-58
2024/04/12 08:41:37;;;;;;;3.58;1.10;;;;;;;;;;5485947;26;19994;-60
2024/04/12 08:44:09;;;;;;;3.13;1.10;;;;;;;;;;5475504;26;20013;-60
2024/04/12 08:46:36;;;;;;;3.85;0.90;;;;;;;;;;5482081;26;20013;-61
2024/04/12 08:49:03;;;;;;;4.32;1.15;;;;;;;;;;5484295;26;19998;-61
2024/04/12 08:51:32;;;;;;;3.08;1.27;;;;;;;;;;5485013;26;19994;-57
2024/04/12 08:53:59;;;;;;;2.67;0.90;;;;;;;;;;5485000;26;20009;-60
2024/04/12 08:56:28;;;;;;;2.17;0.90;;;;;;;;;;5477331;26;20010;-60
2024/04/12 08:59:05;;;;;;;3.72;0.80;;;;;;;;;;5471155;26;20021;-60
2024/04/12 09:01:31;;;;;;;2.83;0.90;;;;;;;;;;5454647;26;20356;-57
2024/04/12 09:04:13;;;;;;;1.65;0.82;;;;;;;;;;5485590;26;20078;-61
2024/04/12 09:06:38;;;;;;;2.10;0.80;;;;;;;;;;5483018;26;20009;-59
2024/04/12 09:09:04;;;;;;;2.88;0.98;;;;;;;;;;5472247;26;20002;-58
2024/04/12 09:11:31;;;;;;;3.08;0.98;;;;;;;;;;5485187;26;19994;-57
2024/04/12 09:14:09;;;;;;;4.25;1.20;;;;;;;;;;5485646;26;20013;-60
2024/04/12 09:16:48;;;;;;;3.55;1.00;;;;;;;;;;5482692;26;19998;-60
2024/04/12 09:19:14;;;;;;;2.42;1.00;;;;;;;;;;5485403;26;20453;-61
2024/04/12 09:21:47;;;;;;;3.75;1.08;;;;;;;;;;5485547;26;20009;-54
2024/04/12 09:24:21;;;;;;;4.50;1.10;;;;;;;;;;5484310;26;20038;-51
2024/04/12 09:26:56;;;;;;;2.90;0.98;;;;;;;;;;5483712;26;19998;-52
2024/04/12 09:29:27;;;;;;;2.60;0.90;;;;;;;;;;5485394;26;20013;-60
2024/04/12 09:34:55;;;;;;;2.33;0.80;;;;;;;;;;5478340;26;20911;-59
2024/04/12 09:37:29;;;;;;;2.83;1.10;;;;;;;;;;5479626;26;20002;-61
2024/04/12 09:42:47;;;;;;;3.13;1.05;;;;;;;;;;5485135;26;20002;-60
2024/04/12 09:45:20;;;;;;;2.85;0.85;;;;;;;;;;5483905;26;20005;-60
2024/04/12 10:37:53;;;;;;;2.40;0.90;;;;;;;;;;5483640;26;20021;-51
2024/04/12 10:40:21;;;;;;;3.20;0.90;;;;;;;;;;5484352;26;20002;-54
2024/04/12 10:42:52;;;;;;;4.40;1.27;;;;;;;;;;5483531;26;20589;-51
2024/04/12 10:45:17;;;;;;;2.28;0.80;;;;;;;;;;5464596;26;20002;-55
2024/04/12 10:47:46;;;;;;;2.90;1.00;;;;;;;;;;5484016;26;20074;-50
2024/04/12 10:50:13;;;;;;;4.28;1.40;;;;;;;;;;5484409;26;20002;-54
2024/04/12 10:52:39;;;;;;;2.53;1.00;;;;;;;;;;5459354;26;20013;-53
2024/04/12 10:55:09;;;;;;;3.45;1.25;;;;;;;;;;5484127;26;20067;-51
2024/04/12 10:57:47;;;;;;;2.90;0.90;;;;;;;;;;5482696;26;20013;-53
2024/04/12 11:00:14;;;;;;;3.40;1.10;;;;;;;;;;5475029;26;20027;-59
2024/04/12 11:02:46;;;;;;;9.10;0.90;;;;;;;;;;5466815;26;20009;-61
2024/04/12 11:07:48;;;;;;;2.30;0.80;;;;;;;;;;5476453;26;20002;-57
2024/04/12 11:10:37;;;;;;;2.28;0.82;;;;;;;;;;5482186;26;20017;-59
2024/04/12 11:13:07;;;;;;;3.75;1.00;;;;;;;;;;5460061;26;20002;-48
2024/04/12 11:31:55;;;;;;;4.40;0.88;;;;;;;;;;5473817;26;20337;-50
2024/04/12 11:34:20;;;;;;;1.67;0.70;;;;;;;;;;5482999;26;20514;-53
2024/04/12 11:36:46;;;;;;;2.28;0.60;;;;;;;;;;5483616;26;20010;-53
2024/04/12 11:39:17;;;;;;;5.60;0.80;;;;;;;;;;5480457;26;20070;-52
2024/04/12 11:41:45;;;;;;;1.98;0.95;;;;;;;;;;5480679;26;20013;-51
2024/04/12 11:44:17;;;;;;;2.25;0.80;;;;;;;;;;5478950;26;20017;-53
2024/04/12 11:46:45;;;;;;;1.80;0.77;;;;;;;;;;5482559;26;19998;-52
2024/04/12 11:49:15;;;;;;;2.88;0.82;;;;;;;;;;5482993;26;20080;-55
2024/04/12 11:51:40;;;;;;;2.88;0.93;;;;;;;;;;5479207;26;20014;-58
2024/04/12 11:54:06;;;;;;;2.33;0.70;;;;;;;;;;5463694;26;19995;-57
2024/04/12 11:56:31;;;;;;;3.63;1.08;;;;;;;;;;5465064;26;19997;-58
2024/04/12 11:58:58;;;;;;;2.30;0.75;;;;;;;;;;5482176;26;20005;-58
2024/04/12 12:01:27;;;;;;;3.85;0.98;;;;;;;;;;5480823;26;19994;-57
2024/04/12 12:03:54;;;;;;;3.33;0.93;;;;;;;;;;5480843;26;19997;-58
2024/04/12 12:06:22;;;;;;;2.55;0.88;;;;;;;;;;5481614;26;20070;-61
2024/04/12 12:08:56;;;;;;;2.10;0.80;;;;;;;;;;5482432;26;20000;-60
2024/04/12 12:11:21;;;;;;;2.35;0.90;;;;;;;;;;5474758;26;19998;-61
2024/04/12 12:13:46;;;;;;;2.45;0.85;;;;;;;;;;5484773;26;20392;-60
2024/04/12 12:16:14;;;;;;;1.90;0.93;;;;;;;;;;5485556;26;20009;-58
2024/04/12 12:18:41;;;;;;;1.90;0.85;;;;;;;;;;5472039;26;20502;-60
2024/04/12 12:21:06;;;;;;;1.90;0.73;;;;;;;;;;5485874;26;20041;-60
2024/04/12 12:23:33;;;;;;;2.70;0.98;;;;;;;;;;5482227;26;20010;-57
2024/04/12 12:25:58;;;;;;;2.13;0.98;;;;;;;;;;5479672;26;20096;-60
2024/04/12 12:28:26;;;;;;;4.65;0.90;;;;;;;;;;5483143;26;20014;-57
2024/04/12 12:30:54;;;;;;;3.35;0.90;;;;;;;;;;5480296;26;20058;-58
2024/04/12 12:33:24;;;;;;;2.38;0.90;;;;;;;;;;5483943;26;20034;-58
2024/04/12 12:35:50;;;;;;;5.43;0.82;;;;;;;;;;5472726;26;20102;-60
2024/04/12 12:38:16;;;;;;;1.75;0.65;;;;;;;;;;5476721;26;19994;-60
2024/04/12 12:40:41;;;;;;;1.95;0.70;;;;;;;;;;5477429;26;20070;-54
2024/04/12 12:43:10;;;;;;;2.05;0.98;;;;;;;;;;5481454;26;20002;-60
2024/04/12 12:45:36;;;;;;;1.75;0.65;;;;;;;;;;5467229;26;20042;-59
2024/04/12 12:48:02;;;;;;;1.88;0.70;;;;;;;;;;5477654;26;19994;-59
2024/04/12 12:50:29;;;;;;;1.55;0.65;;;;;;;;;;5484763;26;20008;-59
2024/04/12 12:52:55;;;;;;;2.88;1.10;;;;;;;;;;5482061;26;20470;-60
2024/04/12 12:55:24;;;;;;;3.65;1.05;;;;;;;;;;5479538;26;20072;-58
2024/04/12 12:57:57;;;;;;;3.90;0.98;;;;;;;;;;5451840;26;20071;-60
2024/04/12 13:00:23;;;;;;;4.13;1.08;;;;;;;;;;5451764;26;20016;-60
2024/04/12 13:02:50;;;;;;;1.95;0.88;;;;;;;;;;5482206;26;20288;-60
2024/04/12 13:05:19;;;;;;;1.92;0.70;;;;;;;;;;5485750;26;20006;-60
2024/04/12 13:07:49;;;;;;;3.28;0.80;;;;;;;;;;5476846;26;19999;-60
2024/04/12 13:10:19;;;;;;;1.98;0.77;;;;;;;;;;5478018;26;20006;-57
2024/04/12 13:12:50;;;;;;;2.58;0.80;;;;;;;;;;5468156;26;19995;-60
2024/04/12 13:15:19;;;;;;;2.33;0.80;;;;;;;;;;5484766;26;19999;-58
2024/04/12 13:17:44;;;;;;;3.00;1.23;;;;;;;;;;5483158;26;20125;-52
2024/04/12 13:20:18;;;;;;;3.20;0.90;;;;;;;;;;5481324;26;20450;-50
2024/04/12 13:22:47;;;;;;;1.55;0.70;;;;;;;;;;5462037;26;20548;-56
2024/04/12 13:25:16;;;;;;;3.17;0.98;;;;;;;;;;5476635;26;19998;-58
2024/04/12 13:27:47;;;;;;;3.20;1.00;;;;;;;;;;5477226;26;20013;-59
2024/04/12 13:30:14;;;;;;;4.78;0.90;;;;;;;;;;5483798;26;19998;-59
2024/04/12 13:32:49;;;;;;;4.25;0.95;;;;;;;;;;5482312;26;20009;-57
2024/04/12 13:35:15;;;;;;;3.22;0.98;;;;;;;;;;5467452;26;20013;-61
2024/04/12 13:37:42;;;;;;;2.00;0.80;;;;;;;;;;5474099;26;19994;-61
2024/04/12 13:40:10;;;;;;;3.95;1.00;;;;;;;;;;5475026;26;20006;-61
2024/04/12 13:42:39;;;;;;;2.25;0.80;;;;;;;;;;5482353;26;20441;-60
2024/04/12 13:53:19;;;;;;;3.55;0.80;;;;;;;;;;5483365;26;20133;-60
2024/04/12 13:55:46;;;;;;;1.75;0.77;;;;;;;;;;5484829;26;20026;-59
2024/04/12 13:58:12;;;;;;;2.47;0.82;;;;;;;;;;5483920;26;21556;-55
2024/04/12 14:00:48;;;;;;;2.10;0.70;;;;;;;;;;5483841;26;20095;-57
2024/04/12 14:03:21;;;;;;;2.75;0.90;;;;;;;;;;5484073;26;19998;-59
2024/04/12 14:05:52;;;;;;;2.88;0.88;;;;;;;;;;5485091;26;19998;-59
2024/04/12 14:08:20;;;;;;;1.90;0.80;;;;;;;;;;5482990;26;20031;-58
2024/04/12 14:10:45;;;;;;;2.83;0.90;;;;;;;;;;5483689;26;20009;-53
2024/04/12 14:13:17;;;;;;;1.52;0.80;;;;;;;;;;5484760;26;19998;-51
2024/04/12 14:15:42;;;;;;;1.98;0.90;;;;;;;;;;5470686;26;20077;-51
2024/04/12 14:18:08;;;;;;;1.55;0.77;;;;;;;;;;5481681;26;20473;-55
2024/04/12 14:20:33;;;;;;;2.13;0.80;;;;;;;;;;5484279;26;20001;-52
2024/04/12 14:22:58;;;;;;;2.88;1.20;;;;;;;;;;5484562;26;20014;-61
2024/04/12 14:25:26;;;;;;;2.53;0.98;;;;;;;;;;5484316;26;19990;-62
2024/04/12 14:27:51;;;;;;;2.53;0.75;;;;;;;;;;5488166;26;20437;-61
2024/04/12 14:30:17;;;;;;;1.98;0.75;;;;;;;;;;5496645;25;20077;-58
2024/04/12 14:32:50;;;;;;;2.35;0.73;;;;;;;;;;5504471;25;20004;-61
2024/04/12 14:35:18;;;;;;;2.60;0.90;;;;;;;;;;5494346;26;20013;-50
2024/04/12 14:37:44;;;;;;;3.55;0.90;;;;;;;;;;5496039;26;20073;-50
2024/04/12 14:40:12;;;;;;;2.80;0.70;;;;;;;;;;5503494;26;20014;-51
2024/04/12 14:42:38;;;;;;;4.93;1.10;;;;;;;;;;5502267;25;20050;-49
2024/04/12 14:45:06;;;;;;;3.92;0.82;;;;;;;;;;5499070;26;20339;-48
2024/04/12 14:47:32;;;;;;;2.55;1.00;;;;;;;;;;5501830;26;20017;-51
2024/04/12 14:49:57;;;;;;;1.63;0.60;;;;;;;;;;5499804;25;20350;-49
2024/04/12 14:52:23;;;;;;;2.05;0.80;;;;;;;;;;5501633;26;20077;-53
2024/04/12 14:54:48;;;;;;;4.78;0.98;;;;;;;;;;5485259;26;20456;-62
2024/04/12 14:57:14;;;;;;;1.75;0.65;;;;;;;;;;5493579;26;20006;-61
2024/04/12 14:59:39;;;;;;;1.98;0.70;;;;;;;;;;5497268;25;20441;-60
2024/04/12 15:02:07;;;;;;;1.75;0.70;;;;;;;;;;5499046;26;19993;-58
2024/04/12 15:48:17;;;;;;;3.72;1.05;;;;;;;;;;5477303;26;20069;-51
2024/04/12 15:50:44;;;;;;;1.40;0.60;;;;;;;;;;5483595;26;20446;-52
2024/04/12 15:53:22;;;;;;;1.75;0.80;;;;;;;;;;5482075;26;19998;-53
2024/04/12 16:12:09;;;;;;;1.55;0.70;;;;;;;;;;5472613;26;20082;-50
2024/04/12 16:14:34;;;;;;;2.58;0.75;;;;;;;;;;5482192;26;19998;-49
2024/04/12 16:16:59;;;;;;;2.28;0.75;;;;;;;;;;5480398;26;20005;-54
2024/04/12 16:19:25;;;;;;;2.53;0.70;;;;;;;;;;5482639;26;19998;-49
2024/04/12 16:21:50;;;;;;;2.10;0.70;;;;;;;;;;5482429;26;20036;-49
2024/04/12 16:24:15;;;;;;;1.67;0.60;;;;;;;;;;5482134;26;20651;-54
2024/04/12 16:26:41;;;;;;;1.55;0.80;;;;;;;;;;5481567;26;20098;-50
2024/04/12 16:29:08;;;;;;;1.13;0.65;;;;;;;;;;5482185;26;20010;-51
2024/04/12 16:31:36;;;;;;;4.22;0.77;;;;;;;;;;5482171;26;20422;-49
2024/04/12 16:34:02;;;;;;;2.13;0.60;;;;;;;;;;5479344;26;20047;-51
2024/04/12 16:36:27;;;;;;;1.50;0.60;;;;;;;;;;5474811;26;20659;-51
2024/04/12 16:38:53;;;;;;;2.10;0.70;;;;;;;;;;5476878;26;20009;-51
2024/04/12 16:41:19;;;;;;;1.92;0.70;;;;;;;;;;5481148;26;20002;-52
2024/04/12 16:43:47;;;;;;;1.92;0.60;;;;;;;;;;5482182;26;20009;-52
2024/04/12 16:46:13;;;;;;;1.48;0.70;;;;;;;;;;5481158;26;20033;-50
2024/04/12 16:48:39;;;;;;;3.25;0.80;;;;;;;;;;5479630;26;20002;-51
2024/04/12 16:51:04;;;;;;;1.25;0.57;;;;;;;;;;5481128;26;20110;-50
2024/04/12 16:53:35;;;;;;;2.80;0.77;;;;;;;;;;5482489;26;19999;-51
2024/04/12 16:56:01;;;;;;;1.52;0.70;;;;;;;;;;5484193;26;20034;-52
2024/04/12 16:58:26;;;;;;;1.63;0.80;;;;;;;;;;5485062;26;20008;-51
2024/04/12 17:00:52;;;;;;;1.55;0.70;;;;;;;;;;5485551;26;20010;-59
2024/04/12 17:03:17;;;;;;;2.65;1.00;;;;;;;;;;5485983;26;20077;-58
2024/04/12 17:05:46;;;;;;;1.83;0.80;;;;;;;;;;5484044;26;20087;-60
2024/04/12 17:08:12;;;;;;;2.13;0.98;;;;;;;;;;5448079;26;20011;-60
2024/04/12 17:10:37;;;;;;;1.42;0.55;;;;;;;;;;5482845;26;20380;-55
2024/04/12 17:13:04;;;;;;;3.00;0.60;;;;;;;;;;5483474;26;20010;-51
2024/04/12 17:15:29;;;;;;;1.48;0.70;;;;;;;;;;5482502;26;19990;-57
2024/04/12 17:17:55;;;;;;;1.60;0.65;;;;;;;;;;5483413;26;20001;-52